Crawfordsville, Iowa
Current Conditions -  °F | °C
As of 10:15 AM on Friday 19 Dec 2014 (Local Time) from KAWG Reporting Station
Overcast Overcast  
Wind Chill: 22°   Ceiling: 5500
Heat Index: 28°   Visibility: 9mi
Dew Point: 27°   Wind: 6mph
Humidity: 93%   Direction: 120°ESE
Pressure: 30.32"   Gusts: NA
Location:  41.24°N, 91.56°W
Report Text: KAWG 191615Z AUTO 12005KT 9SM OVC055 M02/M03 A3032 RMK AO2
Loading
Personal Weather Stations






























Interactive Weather Map New forecast layout! Learn more

10-Day Weather Forecast

Advertisements
Track Severe Weather on mobile